createdAt,value
2023-03-26T00:02:31.943Z,97354.06
2023-03-26T00:05:34.718Z,97350.13
2023-03-26T00:08:38.716Z,97352.22
2023-03-26T00:11:41.757Z,97360.94
2023-03-26T00:14:45.244Z,97363.31
2023-03-26T00:17:48.009Z,97360.06
2023-03-26T00:20:51.827Z,97347.34
2023-03-26T00:23:56.707Z,97353.16
2023-03-26T00:26:59.992Z,97348.34
2023-03-26T00:30:05.430Z,97340.09
2023-03-26T00:33:08.448Z,97336.66
2023-03-26T00:36:16.877Z,97343.38
2023-03-26T00:39:20.143Z,97331.13
2023-03-26T00:42:22.759Z,97330.16
2023-03-26T00:45:25.732Z,97330.34
2023-03-26T00:48:42.244Z,97325.97
2023-03-26T00:51:47.480Z,97331.81
2023-03-26T00:54:53.457Z,97329.19
2023-03-26T00:57:56.835Z,97332.84
2023-03-26T01:01:05.940Z,97325.69
2023-03-26T01:04:31.703Z,97323.44
2023-03-26T01:07:35.555Z,97328.13
2023-03-26T01:10:39.035Z,97329.09
2023-03-26T01:13:52.147Z,97323.78
2023-03-26T01:16:57.524Z,97324.78
2023-03-26T01:20:08.555Z,97333.06
2023-03-26T01:23:11.423Z,97327.19
2023-03-26T01:26:36.685Z,97327.03
2023-03-26T01:29:45.500Z,97341.97
2023-03-26T01:33:30.545Z,97339.59
2023-03-26T01:36:42.955Z,97336.97
2023-03-26T01:39:53.556Z,97331.47
2023-03-26T01:43:01.847Z,97327.13
2023-03-26T01:46:07.756Z,97333.53
2023-03-26T01:49:13.864Z,97327.84
2023-03-26T01:52:21.142Z,97344.06
2023-03-26T01:55:25.606Z,97324.31
2023-03-26T01:58:40.618Z,97333.13
2023-03-26T02:02:05.398Z,97328.19
2023-03-26T02:05:11.117Z,97329.66
2023-03-26T02:08:42.052Z,97340.56
2023-03-26T02:11:45.640Z,97345.94
2023-03-26T02:14:48.562Z,97329.16
2023-03-26T02:17:52.543Z,97310.75
2023-03-26T02:20:56.008Z,97313.88
2023-03-26T02:24:03.442Z,97309.25
2023-03-26T02:27:08.944Z,97298.56
2023-03-26T02:30:16.438Z,97304.69
2023-03-26T02:33:21.919Z,97306.50
2023-03-26T02:36:27.691Z,97297.06
2023-03-26T02:39:34.319Z,97302.28
2023-03-26T02:42:45.159Z,97309.81
2023-03-26T02:45:47.963Z,97313.81
2023-03-26T02:49:20.630Z,97310.75
2023-03-26T02:52:23.341Z,97320.06
2023-03-26T02:55:27.738Z,97318.97
2023-03-26T02:58:33.895Z,97311.97
2023-03-26T03:01:36.748Z,97307.31
2023-03-26T03:04:39.873Z,97311.06
2023-03-26T03:07:42.611Z,97315.59
2023-03-26T03:10:56.222Z,97324.16
2023-03-26T03:14:08.490Z,97315.81
2023-03-26T03:17:11.592Z,97320.63
2023-03-26T03:20:14.276Z,97319.41
2023-03-26T03:23:17.562Z,97324.06
2023-03-26T03:26:23.387Z,97327.63
2023-03-26T03:29:28.721Z,97329.84
2023-03-26T03:32:34.070Z,97325.00
2023-03-26T03:35:41.851Z,97316.78
2023-03-26T03:38:44.802Z,97319.25
2023-03-26T03:41:51.376Z,97322.81
2023-03-26T03:44:54.244Z,97324.19
2023-03-26T03:48:26.919Z,97326.38
2023-03-26T03:51:29.842Z,97328.84
2023-03-26T03:54:35.074Z,97338.97
2023-03-26T03:57:49.599Z,97330.75
2023-03-26T04:01:01.120Z,97334.03
2023-03-26T04:04:33.114Z,97344.16
2023-03-26T04:07:40.784Z,97342.22
2023-03-26T04:10:44.939Z,97335.75
2023-03-26T04:13:47.506Z,97337.16
2023-03-26T04:17:08.913Z,97332.53
2023-03-26T04:20:16.556Z,97330.47
2023-03-26T04:23:25.234Z,97330.72
2023-03-26T04:26:34.011Z,97331.78
2023-03-26T04:29:43.535Z,97332.06
2023-03-26T04:32:52.099Z,97334.25
2023-03-26T04:35:55.048Z,97335.19
2023-03-26T04:39:02.620Z,97327.81
2023-03-26T04:42:25.199Z,97333.41
2023-03-26T04:45:40.320Z,97327.66
2023-03-26T04:48:42.981Z,97329.34
2023-03-26T04:51:47.530Z,97325.47
2023-03-26T04:55:18.848Z,97330.41
2023-03-26T04:58:32.951Z,97332.06
2023-03-26T05:01:38.129Z,97327.06
2023-03-26T05:04:44.121Z,97330.97
2023-03-26T05:07:47.203Z,97324.44
2023-03-26T05:10:53.633Z,97315.06
2023-03-26T05:14:04.843Z,97316.16
2023-03-26T05:17:11.202Z,97318.50
2023-03-26T05:20:21.197Z,97308.38
2023-03-26T05:23:23.887Z,97316.59
2023-03-26T05:26:41.323Z,97314.38
2023-03-26T05:29:44.172Z,97310.16
2023-03-26T05:32:52.291Z,97312.38
2023-03-26T05:36:01.790Z,97321.19
2023-03-26T05:39:06.947Z,97325.84
2023-03-26T05:42:48.413Z,97313.38
2023-03-26T05:46:09.625Z,97320.91
2023-03-26T05:49:13.663Z,97311.44
2023-03-26T05:52:19.253Z,97324.38
2023-03-26T05:55:58.306Z,97325.31
2023-03-26T05:59:19.666Z,97315.13
2023-03-26T06:02:43.329Z,97323.88
2023-03-26T06:06:07.644Z,97321.41
2023-03-26T06:09:19.098Z,97321.66
2023-03-26T06:12:22.580Z,97328.53
2023-03-26T06:15:25.756Z,97329.88
2023-03-26T06:18:43.950Z,97329.50
2023-03-26T06:22:07.608Z,97336.31
2023-03-26T06:25:35.441Z,97329.81
2023-03-26T06:29:04.701Z,97341.47
2023-03-26T06:32:27.870Z,97336.22
2023-03-26T06:35:39.525Z,97337.22
2023-03-26T06:38:42.265Z,97333.91
2023-03-26T06:41:46.095Z,97346.44
2023-03-26T06:44:59.331Z,97345.16
2023-03-26T06:48:11.180Z,97341.38
2023-03-26T06:51:31.450Z,97349.59
2023-03-26T06:54:57.014Z,97346.16
2023-03-26T06:58:20.896Z,97347.94
2023-03-26T07:01:42.253Z,97350.47
2023-03-26T07:05:03.862Z,97350.34
2023-03-26T07:08:26.477Z,97346.91
2023-03-26T07:12:08.173Z,97348.56
2023-03-26T07:15:29.804Z,97352.56
2023-03-26T07:18:51.957Z,97354.28
2023-03-26T07:21:58.561Z,97339.00
2023-03-26T07:25:21.326Z,97339.13
2023-03-26T07:29:04.019Z,97342.44
2023-03-26T07:32:38.669Z,97336.22
2023-03-26T07:36:30.456Z,97330.78
2023-03-26T07:40:04.313Z,97327.84
2023-03-26T07:44:03.607Z,97326.75
2023-03-26T07:47:32.970Z,97329.28
2023-03-26T07:51:00.381Z,97314.25
2023-03-26T07:54:22.023Z,97325.47
2023-03-26T07:58:22.934Z,97327.41
2023-03-26T08:02:32.194Z,97331.59
2023-03-26T08:05:59.431Z,97331.34
2023-03-26T08:09:17.274Z,97323.53
2023-03-26T08:12:47.378Z,97337.47
2023-03-26T08:16:19.824Z,97334.22
2023-03-26T08:19:34.837Z,97330.34
2023-03-26T08:22:46.409Z,97320.91
2023-03-26T08:26:20.137Z,97321.56
2023-03-26T08:29:27.126Z,97320.28
2023-03-26T08:32:30.707Z,97320.06
2023-03-26T08:35:35.628Z,97314.03
2023-03-26T08:38:38.793Z,97307.28
2023-03-26T08:41:56.909Z,97308.75
2023-03-26T08:45:21.037Z,97308.75
2023-03-26T08:49:13.231Z,97304.66
2023-03-26T08:52:16.346Z,97307.41
2023-03-26T08:55:41.166Z,97298.81
2023-03-26T08:59:21.850Z,97301.06
2023-03-26T09:03:03.061Z,97293.63
2023-03-26T09:06:18.672Z,97300.75
2023-03-26T09:09:37.551Z,97293.19
2023-03-26T09:12:46.336Z,97292.25
2023-03-26T09:16:24.529Z,97297.97
2023-03-26T09:19:39.116Z,97289.06
2023-03-26T09:23:19.093Z,97291.06
2023-03-26T09:26:41.987Z,97282.28
2023-03-26T09:30:18.329Z,97272.44
2023-03-26T09:33:28.834Z,97268.16
2023-03-26T09:37:24.150Z,97264.25
2023-03-26T09:40:53.293Z,97270.78
2023-03-26T09:44:24.061Z,97278.00
2023-03-26T09:47:36.116Z,97260.31
2023-03-26T09:51:01.300Z,97262.56
2023-03-26T09:54:35.357Z,97248.63
2023-03-26T09:57:54.054Z,97250.06
2023-03-26T10:01:21.039Z,97230.84
2023-03-26T10:04:45.517Z,97231.00
2023-03-26T10:08:15.086Z,97222.88
2023-03-26T10:11:33.629Z,97206.88
2023-03-26T10:14:54.095Z,97216.78
2023-03-26T10:18:27.168Z,97194.47
2023-03-26T10:21:58.102Z,97197.41
2023-03-26T10:25:08.687Z,97182.81
2023-03-26T10:28:28.443Z,97169.81
2023-03-26T10:31:37.229Z,97173.22
2023-03-26T10:35:16.353Z,97172.06
2023-03-26T10:38:36.657Z,97163.69
2023-03-26T10:41:58.919Z,97154.56
2023-03-26T10:45:24.918Z,97166.22
2023-03-26T10:48:52.410Z,97165.53
2023-03-26T10:51:59.709Z,97159.22
2023-03-26T10:55:12.964Z,97149.00
2023-03-26T10:58:48.715Z,97146.91
2023-03-26T11:02:19.277Z,97136.91
2023-03-26T11:06:07.262Z,97124.00
2023-03-26T11:09:22.202Z,97115.75
2023-03-26T11:12:46.329Z,97102.72
2023-03-26T11:16:16.907Z,97100.69
2023-03-26T11:20:00.659Z,97100.88
2023-03-26T11:23:31.492Z,97099.25
2023-03-26T11:27:20.930Z,97102.50
2023-03-26T11:30:48.506Z,97091.31
2023-03-26T11:33:55.995Z,97091.06
2023-03-26T11:37:04.767Z,97080.06
2023-03-26T11:40:45.452Z,97086.81
2023-03-26T11:44:05.964Z,97080.50
2023-03-26T11:47:16.000Z,97072.47
2023-03-26T11:50:26.061Z,97064.03
2023-03-26T11:53:33.396Z,97056.53
2023-03-26T11:57:05.829Z,97053.06
2023-03-26T12:00:19.877Z,97044.28
2023-03-26T12:03:25.024Z,97038.59
2023-03-26T12:06:30.567Z,97042.66
2023-03-26T12:09:34.389Z,97041.06
2023-03-26T12:12:39.479Z,97026.00
2023-03-26T12:15:52.054Z,97021.22
2023-03-26T12:19:17.586Z,97014.88
2023-03-26T12:22:32.910Z,97002.16
2023-03-26T12:25:40.732Z,97001.22
2023-03-26T12:28:50.990Z,96997.84
2023-03-26T12:32:14.445Z,96992.25
2023-03-26T12:35:20.029Z,96992.66
2023-03-26T12:38:40.793Z,96981.63
2023-03-26T12:42:36.682Z,96970.66
2023-03-26T12:45:22.978Z,96964.44
2023-03-26T12:48:32.249Z,96961.97
2023-03-26T12:51:57.431Z,96953.75
2023-03-26T12:55:12.536Z,96951.44
2023-03-26T12:58:38.590Z,96949.81
2023-03-26T13:02:11.591Z,96946.88
2023-03-26T13:05:24.212Z,96936.56
2023-03-26T13:09:03.432Z,96938.31
2023-03-26T13:12:34.397Z,96934.56
2023-03-26T13:15:46.498Z,96927.56
2023-03-26T13:18:57.709Z,96921.94
2023-03-26T13:22:56.950Z,96919.63
2023-03-26T13:26:05.174Z,96914.34
2023-03-26T13:29:11.113Z,96910.44
2023-03-26T13:32:16.992Z,96899.41
2023-03-26T13:35:28.748Z,96901.00
2023-03-26T13:39:24.886Z,96902.75
2023-03-26T13:42:52.023Z,96888.38
2023-03-26T13:46:25.543Z,96892.44
2023-03-26T13:49:53.203Z,96896.56
2023-03-26T13:53:21.663Z,96893.38
2023-03-26T13:56:31.780Z,96889.94
2023-03-26T14:00:03.020Z,96888.09
2023-03-26T14:03:48.105Z,96889.13
2023-03-26T14:07:13.467Z,96882.06
2023-03-26T14:10:25.063Z,96879.81
2023-03-26T14:13:41.740Z,96881.88
2023-03-26T14:16:51.906Z,96868.44
2023-03-26T14:20:28.261Z,96868.22
2023-03-26T14:23:59.149Z,96857.22
2023-03-26T14:27:22.583Z,96857.47
2023-03-26T14:31:06.704Z,96839.06
2023-03-26T14:34:13.397Z,96844.31
2023-03-26T14:37:33.897Z,96838.63
2023-03-26T14:41:03.524Z,96830.47
2023-03-26T14:44:48.026Z,96825.22
2023-03-26T14:48:30.158Z,96832.34
2023-03-26T14:51:41.818Z,96817.28
2023-03-26T14:54:47.332Z,96802.88
2023-03-26T14:58:09.808Z,96795.94
2023-03-26T15:01:44.660Z,96782.97
2023-03-26T15:05:50.901Z,96781.13
2023-03-26T15:09:13.271Z,96772.00
2023-03-26T15:12:46.229Z,96768.34
2023-03-26T15:16:01.808Z,96771.16
2023-03-26T15:19:13.643Z,96777.69
2023-03-26T15:22:41.135Z,96778.09
2023-03-26T15:26:38.453Z,96760.19
2023-03-26T15:29:49.804Z,96754.47
2023-03-26T15:33:19.068Z,96739.91
2023-03-26T15:37:03.556Z,96741.53
2023-03-26T15:40:11.223Z,96737.88
2023-03-26T15:43:17.165Z,96737.88
2023-03-26T15:47:19.039Z,96742.53
2023-03-26T15:50:42.146Z,96737.88
2023-03-26T15:53:55.971Z,96728.53
2023-03-26T15:57:23.306Z,96723.47
2023-03-26T16:00:32.434Z,96718.00
2023-03-26T16:03:43.493Z,96708.66
2023-03-26T16:07:11.593Z,96705.59
2023-03-26T16:10:37.581Z,96710.28
2023-03-26T16:13:55.345Z,96716.78
2023-03-26T16:17:02.547Z,96708.22
2023-03-26T16:20:28.388Z,96710.28
2023-03-26T16:23:47.616Z,96715.34
2023-03-26T16:27:13.386Z,96710.44
2023-03-26T16:30:18.335Z,96703.16
2023-03-26T16:33:23.821Z,96706.19
2023-03-26T16:36:36.094Z,96699.53
2023-03-26T16:39:44.303Z,96699.50
2023-03-26T16:43:12.243Z,96697.59
2023-03-26T16:46:29.559Z,96699.94
2023-03-26T16:50:14.548Z,96706.91
2023-03-26T16:53:33.389Z,96710.34
2023-03-26T16:56:51.019Z,96713.25
2023-03-26T17:00:24.568Z,96715.47
2023-03-26T17:04:19.929Z,96711.09
2023-03-26T17:07:58.804Z,96703.16
2023-03-26T17:11:10.672Z,96710.00
2023-03-26T17:14:42.662Z,96702.34
2023-03-26T17:17:51.802Z,96691.91
2023-03-26T17:21:05.420Z,96686.69
2023-03-26T17:24:27.316Z,96688.47
2023-03-26T17:28:16.681Z,96679.28
2023-03-26T17:31:26.955Z,96675.28
2023-03-26T17:34:38.788Z,96679.47
2023-03-26T17:37:46.786Z,96685.06
2023-03-26T17:40:57.372Z,96685.72
2023-03-26T17:44:00.713Z,96686.00
2023-03-26T17:47:05.225Z,96685.63
2023-03-26T17:50:14.384Z,96678.78
2023-03-26T17:53:26.245Z,96685.66
2023-03-26T17:56:30.452Z,96675.47
2023-03-26T17:59:33.672Z,96674.22
2023-03-26T18:02:42.950Z,96669.97
2023-03-26T18:05:47.491Z,96665.47
2023-03-26T18:09:11.519Z,96653.06
2023-03-26T18:12:39.021Z,96662.00
2023-03-26T18:16:34.450Z,96668.56
2023-03-26T18:19:56.466Z,96666.47
2023-03-26T18:23:13.483Z,96658.22
2023-03-26T18:26:33.829Z,96659.69
2023-03-26T18:29:38.050Z,96656.16
2023-03-26T18:32:53.021Z,96652.25
2023-03-26T18:35:56.671Z,96639.22
2023-03-26T18:38:59.906Z,96639.22
2023-03-26T18:42:02.871Z,96632.09
2023-03-26T18:45:21.067Z,96628.66
2023-03-26T18:48:25.500Z,96628.66
2023-03-26T18:51:30.113Z,96627.28
2023-03-26T18:54:36.039Z,96650.44
2023-03-26T18:57:40.425Z,96673.81
2023-03-26T19:00:44.827Z,96703.50
2023-03-26T19:03:48.524Z,96702.97
2023-03-26T19:06:55.852Z,96694.66
2023-03-26T19:10:04.884Z,96682.16
2023-03-26T19:13:15.686Z,96665.97
2023-03-26T19:16:26.000Z,96665.81
2023-03-26T19:19:37.421Z,96664.44
2023-03-26T19:22:42.679Z,96662.56
2023-03-26T19:26:02.157Z,96658.78
2023-03-26T19:29:06.416Z,96658.56
2023-03-26T19:32:22.428Z,96643.03
2023-03-26T19:35:27.589Z,96646.13
2023-03-26T19:38:39.318Z,96638.19
2023-03-26T19:41:46.753Z,96613.97
2023-03-26T19:44:51.889Z,96608.78
2023-03-26T19:51:18.626Z,96597.94
2023-03-26T19:51:21.432Z,96585.81
2023-03-26T19:54:25.620Z,96585.53
2023-03-26T19:57:33.379Z,96571.59
2023-03-26T20:00:37.378Z,96566.81
2023-03-26T20:03:42.763Z,96560.22
2023-03-26T20:06:49.665Z,96550.13
2023-03-26T20:09:53.665Z,96544.53
2023-03-26T20:12:56.508Z,96538.25
2023-03-26T20:16:11.144Z,96544.91
2023-03-26T20:19:15.216Z,96549.06
2023-03-26T20:22:23.966Z,96545.44
2023-03-26T20:25:31.164Z,96545.81
2023-03-26T20:28:42.364Z,96551.41
2023-03-26T20:31:52.312Z,96554.47
2023-03-26T20:34:55.383Z,96561.91
2023-03-26T20:37:58.536Z,96563.25
2023-03-26T20:41:02.212Z,96555.88
2023-03-26T20:44:13.977Z,96556.56
2023-03-26T20:47:17.083Z,96559.81
2023-03-26T20:50:23.269Z,96556.47
2023-03-26T20:53:26.322Z,96538.16
2023-03-26T20:56:29.309Z,96543.31
2023-03-26T20:59:32.067Z,96536.69
2023-03-26T21:02:35.074Z,96527.41
2023-03-26T21:05:39.517Z,96519.63
2023-03-26T21:08:43.903Z,96521.22
2023-03-26T21:12:02.250Z,96535.53
2023-03-26T21:15:13.349Z,96534.44
2023-03-26T21:18:19.902Z,96534.78
2023-03-26T21:21:37.813Z,96531.16
2023-03-26T21:24:57.505Z,96523.50
2023-03-26T21:28:26.275Z,96517.44
2023-03-26T21:31:38.074Z,96521.22
2023-03-26T21:34:47.891Z,96508.75
2023-03-26T21:37:59.221Z,96506.53
2023-03-26T21:44:06.090Z,96490.25
2023-03-26T21:47:09.965Z,96478.59
2023-03-26T21:50:15.546Z,96481.41
2023-03-26T21:53:18.654Z,96469.84
2023-03-26T21:56:31.430Z,96481.34
2023-03-26T21:59:40.143Z,96474.38
2023-03-26T22:03:12.360Z,96464.97
2023-03-26T22:06:43.275Z,96464.06
2023-03-26T22:09:46.284Z,96471.03
2023-03-26T22:12:49.476Z,96471.28
2023-03-26T22:15:52.299Z,96457.00
2023-03-26T22:18:54.910Z,96439.22
2023-03-26T22:21:58.613Z,96437.56
2023-03-26T22:25:01.519Z,96444.25
2023-03-26T22:28:04.939Z,96441.75
2023-03-26T22:31:09.390Z,96427.41
2023-03-26T22:34:12.444Z,96423.78
2023-03-26T22:37:16.428Z,96420.81
2023-03-26T22:40:19.504Z,96417.56
2023-03-26T22:43:22.166Z,96418.91
2023-03-26T22:46:25.118Z,96422.31
2023-03-26T22:49:30.483Z,96408.34
2023-03-26T22:52:33.946Z,96411.59
2023-03-26T22:55:36.746Z,96411.47
2023-03-26T22:58:39.582Z,96419.56
2023-03-26T23:01:42.318Z,96416.66
2023-03-26T23:04:46.635Z,96418.09
2023-03-26T23:07:49.932Z,96422.50
2023-03-26T23:10:52.973Z,96420.56
2023-03-26T23:13:55.952Z,96426.31
2023-03-26T23:16:59.861Z,96432.69
2023-03-26T23:20:06.517Z,96432.91
2023-03-26T23:23:10.736Z,96434.97
2023-03-26T23:26:14.871Z,96434.81
2023-03-26T23:29:17.711Z,96434.69
2023-03-26T23:32:24.703Z,96433.84
2023-03-26T23:35:27.868Z,96423.13
2023-03-26T23:38:43.665Z,96417.78
2023-03-26T23:41:47.735Z,96423.84
2023-03-26T23:44:50.751Z,96423.69
2023-03-26T23:47:53.521Z,96425.13
2023-03-26T23:51:03.151Z,96419.63
2023-03-26T23:54:09.133Z,96402.66
2023-03-26T23:57:12.071Z,96398.81
